sensor_id;sensor_type;location;lat;lon;timestamp;P1;durP1;ratioP1;P2;durP2;ratioP2
62711;SDS011;48772;55.586;37.730;2023-06-22T00:00:09;14.38;;;5.55;;
62711;SDS011;48772;55.586;37.730;2023-06-22T00:02:38;13.20;;;5.07;;
62711;SDS011;48772;55.586;37.730;2023-06-22T00:05:04;10.48;;;5.60;;
62711;SDS011;48772;55.586;37.730;2023-06-22T00:07:30;14.98;;;5.40;;
62711;SDS011;48772;55.586;37.730;2023-06-22T00:09:56;11.23;;;6.22;;
62711;SDS011;48772;55.586;37.730;2023-06-22T00:12:23;18.42;;;5.60;;
62711;SDS011;48772;55.586;37.730;2023-06-22T00:14:49;16.30;;;5.65;;
62711;SDS011;48772;55.586;37.730;2023-06-22T00:17:14;18.25;;;6.68;;
62711;SDS011;48772;55.586;37.730;2023-06-22T00:19:40;18.88;;;6.95;;
62711;SDS011;48772;55.586;37.730;2023-06-22T00:22:06;13.60;;;6.70;;
62711;SDS011;48772;55.586;37.730;2023-06-22T00:24:32;15.48;;;6.97;;
62711;SDS011;48772;55.586;37.730;2023-06-22T00:26:58;13.80;;;6.90;;
62711;SDS011;48772;55.586;37.730;2023-06-22T00:29:24;20.17;;;9.27;;
62711;SDS011;48772;55.586;37.730;2023-06-22T00:31:50;18.38;;;9.93;;
62711;SDS011;48772;55.586;37.730;2023-06-22T00:34:16;15.38;;;8.85;;
62711;SDS011;48772;55.586;37.730;2023-06-22T00:36:42;29.48;;;9.63;;
62711;SDS011;48772;55.586;37.730;2023-06-22T00:39:08;29.98;;;10.55;;
62711;SDS011;48772;55.586;37.730;2023-06-22T00:41:35;32.45;;;15.77;;
62711;SDS011;48772;55.586;37.730;2023-06-22T00:44:03;34.45;;;15.00;;
62711;SDS011;48772;55.586;37.730;2023-06-22T00:46:30;30.90;;;14.07;;
62711;SDS011;48772;55.586;37.730;2023-06-22T00:48:57;27.52;;;14.10;;
62711;SDS011;48772;55.586;37.730;2023-06-22T00:51:23;30.02;;;13.70;;
62711;SDS011;48772;55.586;37.730;2023-06-22T00:53:50;34.13;;;13.52;;
62711;SDS011;48772;55.586;37.730;2023-06-22T00:56:19;37.75;;;18.38;;
62711;SDS011;48772;55.586;37.730;2023-06-22T00:58:50;36.35;;;18.50;;
62711;SDS011;48772;55.586;37.730;2023-06-22T01:01:18;37.95;;;18.80;;
62711;SDS011;48772;55.586;37.730;2023-06-22T01:03:49;31.10;;;15.77;;
62711;SDS011;48772;55.586;37.730;2023-06-22T01:06:19;33.83;;;15.25;;
62711;SDS011;48772;55.586;37.730;2023-06-22T01:09:02;31.85;;;14.13;;
62711;SDS011;48772;55.586;37.730;2023-06-22T01:11:45;27.55;;;12.20;;
62711;SDS011;48772;55.586;37.730;2023-06-22T01:14:20;26.67;;;12.20;;
62711;SDS011;48772;55.586;37.730;2023-06-22T01:16:50;19.95;;;10.27;;
62711;SDS011;48772;55.586;37.730;2023-06-22T01:22:02;19.42;;;8.55;;
62711;SDS011;48772;55.586;37.730;2023-06-22T01:30:27;18.92;;;9.45;;
62711;SDS011;48772;55.586;37.730;2023-06-22T01:32:56;19.98;;;9.63;;
62711;SDS011;48772;55.586;37.730;2023-06-22T01:35:25;22.15;;;9.50;;
62711;SDS011;48772;55.586;37.730;2023-06-22T01:37:52;21.45;;;10.65;;
62711;SDS011;48772;55.586;37.730;2023-06-22T01:40:18;20.70;;;9.07;;
62711;SDS011;48772;55.586;37.730;2023-06-22T01:42:46;20.33;;;9.10;;
62711;SDS011;48772;55.586;37.730;2023-06-22T01:45:12;22.38;;;9.70;;
62711;SDS011;48772;55.586;37.730;2023-06-22T01:47:40;23.58;;;10.90;;
62711;SDS011;48772;55.586;37.730;2023-06-22T01:50:08;26.00;;;11.55;;
62711;SDS011;48772;55.586;37.730;2023-06-22T01:52:35;18.35;;;9.50;;
62711;SDS011;48772;55.586;37.730;2023-06-22T01:55:01;18.13;;;9.55;;
62711;SDS011;48772;55.586;37.730;2023-06-22T01:57:30;20.17;;;9.20;;
62711;SDS011;48772;55.586;37.730;2023-06-22T02:00:01;15.70;;;8.95;;
62711;SDS011;48772;55.586;37.730;2023-06-22T02:02:54;22.08;;;10.05;;
62711;SDS011;48772;55.586;37.730;2023-06-22T02:05:35;15.02;;;8.50;;
62711;SDS011;48772;55.586;37.730;2023-06-22T02:08:09;10.25;;;5.32;;
62711;SDS011;48772;55.586;37.730;2023-06-22T02:10:37;21.02;;;8.90;;
62711;SDS011;48772;55.586;37.730;2023-06-22T02:13:07;10.02;;;6.05;;
62711;SDS011;48772;55.586;37.730;2023-06-22T02:15:36;19.33;;;7.82;;
62711;SDS011;48772;55.586;37.730;2023-06-22T02:18:03;18.90;;;9.35;;
62711;SDS011;48772;55.586;37.730;2023-06-22T02:20:50;15.70;;;9.88;;
62711;SDS011;48772;55.586;37.730;2023-06-22T02:23:16;20.80;;;9.43;;
62711;SDS011;48772;55.586;37.730;2023-06-22T02:25:42;20.73;;;8.60;;
62711;SDS011;48772;55.586;37.730;2023-06-22T02:28:10;19.30;;;10.02;;
62711;SDS011;48772;55.586;37.730;2023-06-22T02:30:38;14.85;;;9.38;;
62711;SDS011;48772;55.586;37.730;2023-06-22T02:33:08;18.70;;;8.50;;
62711;SDS011;48772;55.586;37.730;2023-06-22T02:35:34;12.60;;;7.60;;
62711;SDS011;48772;55.586;37.730;2023-06-22T02:38:02;14.48;;;7.75;;
62711;SDS011;48772;55.586;37.730;2023-06-22T02:40:30;16.90;;;8.15;;
62711;SDS011;48772;55.586;37.730;2023-06-22T02:42:58;21.20;;;8.27;;
62711;SDS011;48772;55.586;37.730;2023-06-22T02:45:29;22.15;;;8.63;;
62711;SDS011;48772;55.586;37.730;2023-06-22T02:47:55;14.43;;;9.30;;
62711;SDS011;48772;55.586;37.730;2023-06-22T02:50:23;22.50;;;8.98;;
62711;SDS011;48772;55.586;37.730;2023-06-22T02:52:49;20.88;;;10.48;;
62711;SDS011;48772;55.586;37.730;2023-06-22T02:55:15;32.38;;;18.83;;
62711;SDS011;48772;55.586;37.730;2023-06-22T02:57:47;38.88;;;25.10;;
62711;SDS011;48772;55.586;37.730;2023-06-22T03:00:13;28.88;;;17.50;;
62711;SDS011;48772;55.586;37.730;2023-06-22T03:02:45;24.70;;;15.57;;
62711;SDS011;48772;55.586;37.730;2023-06-22T03:05:15;25.05;;;14.32;;
62711;SDS011;48772;55.586;37.730;2023-06-22T03:07:45;31.33;;;16.27;;
62711;SDS011;48772;55.586;37.730;2023-06-22T03:10:11;23.40;;;16.25;;
62711;SDS011;48772;55.586;37.730;2023-06-22T03:12:39;30.13;;;15.32;;
62711;SDS011;48772;55.586;37.730;2023-06-22T03:15:06;21.10;;;12.50;;
62711;SDS011;48772;55.586;37.730;2023-06-22T03:17:33;17.25;;;9.85;;
62711;SDS011;48772;55.586;37.730;2023-06-22T03:20:01;29.83;;;11.43;;
62711;SDS011;48772;55.586;37.730;2023-06-22T03:22:41;20.95;;;10.25;;
62711;SDS011;48772;55.586;37.730;2023-06-22T03:25:08;17.05;;;9.55;;
62711;SDS011;48772;55.586;37.730;2023-06-22T03:27:37;33.60;;;10.18;;
62711;SDS011;48772;55.586;37.730;2023-06-22T03:30:07;17.45;;;9.18;;
62711;SDS011;48772;55.586;37.730;2023-06-22T03:32:34;17.67;;;8.77;;
62711;SDS011;48772;55.586;37.730;2023-06-22T03:35:00;21.20;;;10.02;;
62711;SDS011;48772;55.586;37.730;2023-06-22T03:37:31;18.38;;;8.35;;
62711;SDS011;48772;55.586;37.730;2023-06-22T03:39:57;17.50;;;8.13;;
62711;SDS011;48772;55.586;37.730;2023-06-22T03:42:24;15.35;;;6.93;;
62711;SDS011;48772;55.586;37.730;2023-06-22T03:44:51;14.27;;;7.65;;
62711;SDS011;48772;55.586;37.730;2023-06-22T03:47:17;16.63;;;8.13;;
62711;SDS011;48772;55.586;37.730;2023-06-22T03:49:43;16.23;;;7.82;;
62711;SDS011;48772;55.586;37.730;2023-06-22T03:52:09;19.05;;;9.48;;
62711;SDS011;48772;55.586;37.730;2023-06-22T03:54:36;20.75;;;9.45;;
62711;SDS011;48772;55.586;37.730;2023-06-22T03:57:02;17.83;;;9.40;;
62711;SDS011;48772;55.586;37.730;2023-06-22T03:59:29;16.08;;;9.90;;
62711;SDS011;48772;55.586;37.730;2023-06-22T04:01:55;21.98;;;9.10;;
62711;SDS011;48772;55.586;37.730;2023-06-22T04:04:23;16.33;;;8.57;;
62711;SDS011;48772;55.586;37.730;2023-06-22T04:06:50;17.05;;;8.63;;
62711;SDS011;48772;55.586;37.730;2023-06-22T04:09:25;15.77;;;8.27;;
62711;SDS011;48772;55.586;37.730;2023-06-22T04:11:52;13.77;;;7.68;;
62711;SDS011;48772;55.586;37.730;2023-06-22T04:14:17;20.40;;;7.90;;
62711;SDS011;48772;55.586;37.730;2023-06-22T04:16:43;12.75;;;8.15;;
62711;SDS011;48772;55.586;37.730;2023-06-22T04:19:13;13.63;;;8.18;;
62711;SDS011;48772;55.586;37.730;2023-06-22T04:21:45;13.60;;;8.02;;
62711;SDS011;48772;55.586;37.730;2023-06-22T04:24:11;17.80;;;8.40;;
62711;SDS011;48772;55.586;37.730;2023-06-22T04:26:37;16.83;;;7.82;;
62711;SDS011;48772;55.586;37.730;2023-06-22T04:29:04;17.75;;;7.78;;
62711;SDS011;48772;55.586;37.730;2023-06-22T04:31:31;20.70;;;7.85;;
62711;SDS011;48772;55.586;37.730;2023-06-22T04:34:05;11.48;;;7.57;;
62711;SDS011;48772;55.586;37.730;2023-06-22T04:36:36;20.83;;;7.60;;
62711;SDS011;48772;55.586;37.730;2023-06-22T04:39:04;21.13;;;7.70;;
62711;SDS011;48772;55.586;37.730;2023-06-22T04:41:32;10.30;;;6.43;;
62711;SDS011;48772;55.586;37.730;2023-06-22T04:44:08;11.85;;;5.93;;
62711;SDS011;48772;55.586;37.730;2023-06-22T04:46:35;10.60;;;5.47;;
62711;SDS011;48772;55.586;37.730;2023-06-22T04:49:07;14.88;;;6.05;;
62711;SDS011;48772;55.586;37.730;2023-06-22T04:51:40;12.43;;;5.00;;
62711;SDS011;48772;55.586;37.730;2023-06-22T04:54:08;11.85;;;5.63;;
62711;SDS011;48772;55.586;37.730;2023-06-22T04:56:35;15.65;;;5.18;;
62711;SDS011;48772;55.586;37.730;2023-06-22T04:59:01;26.60;;;5.63;;
62711;SDS011;48772;55.586;37.730;2023-06-22T05:01:29;10.18;;;4.72;;
62711;SDS011;48772;55.586;37.730;2023-06-22T05:03:57;9.02;;;3.70;;
62711;SDS011;48772;55.586;37.730;2023-06-22T05:06:27;6.75;;;4.00;;
62711;SDS011;48772;55.586;37.730;2023-06-22T05:08:53;11.70;;;4.05;;
62711;SDS011;48772;55.586;37.730;2023-06-22T05:11:26;7.43;;;3.63;;
62711;SDS011;48772;55.586;37.730;2023-06-22T05:13:53;4.00;;;3.20;;
62711;SDS011;48772;55.586;37.730;2023-06-22T05:16:20;7.82;;;3.80;;
62711;SDS011;48772;55.586;37.730;2023-06-22T05:18:52;9.73;;;3.70;;
62711;SDS011;48772;55.586;37.730;2023-06-22T05:21:23;5.72;;;3.42;;
62711;SDS011;48772;55.586;37.730;2023-06-22T05:23:51;7.38;;;3.20;;
62711;SDS011;48772;55.586;37.730;2023-06-22T05:26:18;9.35;;;3.47;;
62711;SDS011;48772;55.586;37.730;2023-06-22T05:28:46;5.20;;;3.50;;
62711;SDS011;48772;55.586;37.730;2023-06-22T05:31:13;7.72;;;3.55;;
62711;SDS011;48772;55.586;37.730;2023-06-22T05:33:43;6.72;;;3.70;;
62711;SDS011;48772;55.586;37.730;2023-06-22T05:36:09;8.93;;;3.63;;
62711;SDS011;48772;55.586;37.730;2023-06-22T05:38:36;6.28;;;3.35;;
62711;SDS011;48772;55.586;37.730;2023-06-22T05:41:02;4.68;;;3.60;;
62711;SDS011;48772;55.586;37.730;2023-06-22T05:43:28;6.43;;;3.10;;
62711;SDS011;48772;55.586;37.730;2023-06-22T05:45:54;10.10;;;3.45;;
62711;SDS011;48772;55.586;37.730;2023-06-22T05:48:21;7.65;;;3.67;;
62711;SDS011;48772;55.586;37.730;2023-06-22T05:50:47;6.75;;;3.80;;
62711;SDS011;48772;55.586;37.730;2023-06-22T05:53:13;6.93;;;3.15;;
62711;SDS011;48772;55.586;37.730;2023-06-22T05:55:39;5.13;;;3.50;;
62711;SDS011;48772;55.586;37.730;2023-06-22T05:58:05;5.63;;;3.17;;
62711;SDS011;48772;55.586;37.730;2023-06-22T06:00:31;5.78;;;3.45;;
62711;SDS011;48772;55.586;37.730;2023-06-22T06:02:58;6.97;;;3.40;;
62711;SDS011;48772;55.586;37.730;2023-06-22T06:05:32;4.13;;;3.10;;
62711;SDS011;48772;55.586;37.730;2023-06-22T06:07:59;6.93;;;3.08;;
62711;SDS011;48772;55.586;37.730;2023-06-22T06:10:26;6.40;;;3.70;;
62711;SDS011;48772;55.586;37.730;2023-06-22T06:12:55;3.00;;;2.67;;
62711;SDS011;48772;55.586;37.730;2023-06-22T06:15:22;11.85;;;3.88;;
62711;SDS011;48772;55.586;37.730;2023-06-22T06:17:49;8.65;;;3.28;;
62711;SDS011;48772;55.586;37.730;2023-06-22T06:20:20;4.80;;;3.38;;
62711;SDS011;48772;55.586;37.730;2023-06-22T06:22:47;11.18;;;4.03;;
62711;SDS011;48772;55.586;37.730;2023-06-22T06:25:14;4.35;;;2.95;;
62711;SDS011;48772;55.586;37.730;2023-06-22T06:27:45;7.07;;;3.38;;
62711;SDS011;48772;55.586;37.730;2023-06-22T06:30:12;16.98;;;3.50;;
62711;SDS011;48772;55.586;37.730;2023-06-22T06:32:40;6.57;;;3.40;;
62711;SDS011;48772;55.586;37.730;2023-06-22T06:35:07;7.45;;;3.25;;
62711;SDS011;48772;55.586;37.730;2023-06-22T06:37:38;5.20;;;3.45;;
62711;SDS011;48772;55.586;37.730;2023-06-22T06:40:06;3.33;;;3.03;;
62711;SDS011;48772;55.586;37.730;2023-06-22T06:42:37;6.35;;;3.00;;
62711;SDS011;48772;55.586;37.730;2023-06-22T06:45:06;3.70;;;3.15;;
62711;SDS011;48772;55.586;37.730;2023-06-22T06:47:33;8.77;;;3.38;;
62711;SDS011;48772;55.586;37.730;2023-06-22T06:49:59;10.60;;;3.30;;
62711;SDS011;48772;55.586;37.730;2023-06-22T06:52:26;8.30;;;3.85;;
62711;SDS011;48772;55.586;37.730;2023-06-22T06:54:52;3.95;;;3.03;;
62711;SDS011;48772;55.586;37.730;2023-06-22T06:57:18;3.45;;;2.70;;
62711;SDS011;48772;55.586;37.730;2023-06-22T06:59:45;5.90;;;3.08;;
62711;SDS011;48772;55.586;37.730;2023-06-22T07:02:12;5.10;;;3.10;;
62711;SDS011;48772;55.586;37.730;2023-06-22T07:04:38;4.85;;;3.30;;
62711;SDS011;48772;55.586;37.730;2023-06-22T07:07:04;9.55;;;3.25;;
62711;SDS011;48772;55.586;37.730;2023-06-22T07:09:31;7.68;;;3.58;;
62711;SDS011;48772;55.586;37.730;2023-06-22T07:11:57;6.95;;;4.03;;
62711;SDS011;48772;55.586;37.730;2023-06-22T07:14:23;5.32;;;4.60;;
62711;SDS011;48772;55.586;37.730;2023-06-22T07:16:49;5.15;;;3.45;;
62711;SDS011;48772;55.586;37.730;2023-06-22T07:19:15;5.00;;;3.33;;
62711;SDS011;48772;55.586;37.730;2023-06-22T07:21:41;5.85;;;3.40;;
62711;SDS011;48772;55.586;37.730;2023-06-22T07:24:07;7.10;;;3.55;;
62711;SDS011;48772;55.586;37.730;2023-06-22T07:26:33;8.35;;;4.05;;
62711;SDS011;48772;55.586;37.730;2023-06-22T07:28:59;4.70;;;3.38;;
62711;SDS011;48772;55.586;37.730;2023-06-22T07:31:26;7.95;;;3.58;;
62711;SDS011;48772;55.586;37.730;2023-06-22T07:33:52;5.70;;;3.30;;
62711;SDS011;48772;55.586;37.730;2023-06-22T07:36:18;6.82;;;3.10;;
62711;SDS011;48772;55.586;37.730;2023-06-22T07:38:45;4.70;;;3.33;;
62711;SDS011;48772;55.586;37.730;2023-06-22T07:41:11;6.07;;;3.45;;
62711;SDS011;48772;55.586;37.730;2023-06-22T07:43:37;4.82;;;3.08;;
62711;SDS011;48772;55.586;37.730;2023-06-22T07:46:03;7.10;;;3.45;;
62711;SDS011;48772;55.586;37.730;2023-06-22T07:48:29;6.88;;;3.55;;
62711;SDS011;48772;55.586;37.730;2023-06-22T07:50:55;7.40;;;3.25;;
62711;SDS011;48772;55.586;37.730;2023-06-22T07:53:22;3.80;;;2.90;;
62711;SDS011;48772;55.586;37.730;2023-06-22T07:55:50;5.03;;;3.17;;
62711;SDS011;48772;55.586;37.730;2023-06-22T07:58:16;4.72;;;3.47;;
62711;SDS011;48772;55.586;37.730;2023-06-22T08:00:44;8.80;;;3.72;;
62711;SDS011;48772;55.586;37.730;2023-06-22T08:03:10;5.13;;;3.30;;
62711;SDS011;48772;55.586;37.730;2023-06-22T08:05:36;6.78;;;3.55;;
62711;SDS011;48772;55.586;37.730;2023-06-22T08:08:02;4.47;;;3.72;;
62711;SDS011;48772;55.586;37.730;2023-06-22T08:10:28;11.63;;;3.55;;
62711;SDS011;48772;55.586;37.730;2023-06-22T08:12:54;4.72;;;3.30;;
62711;SDS011;48772;55.586;37.730;2023-06-22T08:15:20;4.07;;;3.60;;
62711;SDS011;48772;55.586;37.730;2023-06-22T08:17:47;7.05;;;3.50;;
62711;SDS011;48772;55.586;37.730;2023-06-22T08:20:13;3.47;;;2.92;;
62711;SDS011;48772;55.586;37.730;2023-06-22T08:22:41;6.15;;;3.25;;
62711;SDS011;48772;55.586;37.730;2023-06-22T08:25:09;8.38;;;3.30;;
62711;SDS011;48772;55.586;37.730;2023-06-22T08:27:36;9.73;;;3.38;;
62711;SDS011;48772;55.586;37.730;2023-06-22T08:30:02;7.85;;;3.20;;
62711;SDS011;48772;55.586;37.730;2023-06-22T08:32:32;5.03;;;3.28;;
62711;SDS011;48772;55.586;37.730;2023-06-22T08:35:00;4.40;;;3.15;;
62711;SDS011;48772;55.586;37.730;2023-06-22T08:37:31;5.68;;;3.28;;
62711;SDS011;48772;55.586;37.730;2023-06-22T08:40:02;4.85;;;3.42;;
62711;SDS011;48772;55.586;37.730;2023-06-22T08:42:34;5.88;;;3.05;;
62711;SDS011;48772;55.586;37.730;2023-06-22T08:45:01;6.20;;;3.13;;
62711;SDS011;48772;55.586;37.730;2023-06-22T08:47:33;5.35;;;3.42;;
62711;SDS011;48772;55.586;37.730;2023-06-22T08:50:00;3.50;;;3.20;;
62711;SDS011;48772;55.586;37.730;2023-06-22T08:52:32;9.07;;;3.00;;
62711;SDS011;48772;55.586;37.730;2023-06-22T08:54:58;13.75;;;3.53;;
62711;SDS011;48772;55.586;37.730;2023-06-22T08:57:24;5.60;;;3.40;;
62711;SDS011;48772;55.586;37.730;2023-06-22T08:59:50;5.45;;;3.15;;
62711;SDS011;48772;55.586;37.730;2023-06-22T09:02:23;7.18;;;3.30;;
62711;SDS011;48772;55.586;37.730;2023-06-22T09:04:50;6.18;;;3.33;;
62711;SDS011;48772;55.586;37.730;2023-06-22T09:07:21;6.18;;;3.63;;
62711;SDS011;48772;55.586;37.730;2023-06-22T09:09:49;7.38;;;3.38;;
62711;SDS011;48772;55.586;37.730;2023-06-22T09:12:15;4.82;;;3.60;;
62711;SDS011;48772;55.586;37.730;2023-06-22T09:14:41;4.50;;;3.30;;
62711;SDS011;48772;55.586;37.730;2023-06-22T09:17:07;9.55;;;3.42;;
62711;SDS011;48772;55.586;37.730;2023-06-22T09:19:33;6.30;;;3.30;;
62711;SDS011;48772;55.586;37.730;2023-06-22T09:21:59;6.35;;;3.60;;
62711;SDS011;48772;55.586;37.730;2023-06-22T09:24:25;8.20;;;3.40;;
62711;SDS011;48772;55.586;37.730;2023-06-22T09:26:52;5.57;;;3.40;;
62711;SDS011;48772;55.586;37.730;2023-06-22T09:29:19;4.20;;;2.75;;
62711;SDS011;48772;55.586;37.730;2023-06-22T09:31:45;4.55;;;3.20;;
62711;SDS011;48772;55.586;37.730;2023-06-22T09:34:14;3.88;;;3.00;;
62711;SDS011;48772;55.586;37.730;2023-06-22T09:36:41;5.32;;;2.97;;
62711;SDS011;48772;55.586;37.730;2023-06-22T09:39:07;6.28;;;3.25;;
62711;SDS011;48772;55.586;37.730;2023-06-22T09:41:33;4.75;;;3.08;;
62711;SDS011;48772;55.586;37.730;2023-06-22T09:43:59;5.18;;;2.88;;
62711;SDS011;48772;55.586;37.730;2023-06-22T09:46:25;8.57;;;6.55;;
62711;SDS011;48772;55.586;37.730;2023-06-22T09:48:52;7.97;;;3.30;;
62711;SDS011;48772;55.586;37.730;2023-06-22T09:51:18;6.10;;;3.28;;
62711;SDS011;48772;55.586;37.730;2023-06-22T09:53:50;5.25;;;3.50;;
62711;SDS011;48772;55.586;37.730;2023-06-22T09:56:20;4.95;;;3.33;;
62711;SDS011;48772;55.586;37.730;2023-06-22T09:58:51;5.68;;;3.30;;
62711;SDS011;48772;55.586;37.730;2023-06-22T10:01:19;4.80;;;3.45;;
62711;SDS011;48772;55.586;37.730;2023-06-22T10:03:46;8.10;;;3.47;;
62711;SDS011;48772;55.586;37.730;2023-06-22T10:06:12;5.15;;;3.40;;
62711;SDS011;48772;55.586;37.730;2023-06-22T10:08:40;6.30;;;3.30;;
62711;SDS011;48772;55.586;37.730;2023-06-22T10:11:06;4.85;;;3.33;;
62711;SDS011;48772;55.586;37.730;2023-06-22T10:13:32;4.32;;;3.25;;
62711;SDS011;48772;55.586;37.730;2023-06-22T10:15:59;5.72;;;3.50;;
62711;SDS011;48772;55.586;37.730;2023-06-22T10:18:28;6.18;;;3.38;;
62711;SDS011;48772;55.586;37.730;2023-06-22T10:20:57;8.93;;;3.40;;
62711;SDS011;48772;55.586;37.730;2023-06-22T10:23:23;7.90;;;3.63;;
62711;SDS011;48772;55.586;37.730;2023-06-22T10:25:49;6.13;;;3.45;;
62711;SDS011;48772;55.586;37.730;2023-06-22T10:28:15;11.48;;;3.63;;
62711;SDS011;48772;55.586;37.730;2023-06-22T10:30:41;5.07;;;3.55;;
62711;SDS011;48772;55.586;37.730;2023-06-22T10:33:09;6.75;;;3.65;;
62711;SDS011;48772;55.586;37.730;2023-06-22T10:35:36;5.65;;;3.60;;
62711;SDS011;48772;55.586;37.730;2023-06-22T10:38:05;7.45;;;3.72;;
62711;SDS011;48772;55.586;37.730;2023-06-22T10:40:33;13.13;;;4.80;;
62711;SDS011;48772;55.586;37.730;2023-06-22T10:43:04;4.88;;;3.83;;
62711;SDS011;48772;55.586;37.730;2023-06-22T10:45:32;5.22;;;3.83;;
62711;SDS011;48772;55.586;37.730;2023-06-22T10:47:58;6.90;;;4.00;;
62711;SDS011;48772;55.586;37.730;2023-06-22T10:50:24;7.32;;;3.83;;
62711;SDS011;48772;55.586;37.730;2023-06-22T10:52:51;9.13;;;4.00;;
62711;SDS011;48772;55.586;37.730;2023-06-22T10:55:17;6.22;;;3.95;;
62711;SDS011;48772;55.586;37.730;2023-06-22T10:57:43;4.60;;;3.80;;
62711;SDS011;48772;55.586;37.730;2023-06-22T11:00:12;6.80;;;4.20;;
62711;SDS011;48772;55.586;37.730;2023-06-22T11:02:40;7.57;;;3.80;;
62711;SDS011;48772;55.586;37.730;2023-06-22T11:05:06;8.13;;;4.38;;
62711;SDS011;48772;55.586;37.730;2023-06-22T11:07:32;8.27;;;4.50;;
62711;SDS011;48772;55.586;37.730;2023-06-22T11:09:59;8.00;;;3.85;;
62711;SDS011;48772;55.586;37.730;2023-06-22T11:12:25;6.38;;;4.13;;
62711;SDS011;48772;55.586;37.730;2023-06-22T11:14:51;4.30;;;3.80;;
62711;SDS011;48772;55.586;37.730;2023-06-22T11:17:17;4.88;;;3.90;;
62711;SDS011;48772;55.586;37.730;2023-06-22T11:19:44;4.95;;;3.85;;
62711;SDS011;48772;55.586;37.730;2023-06-22T11:22:10;7.85;;;3.67;;
62711;SDS011;48772;55.586;37.730;2023-06-22T11:24:36;3.92;;;3.58;;
62711;SDS011;48772;55.586;37.730;2023-06-22T11:27:02;4.78;;;3.90;;
62711;SDS011;48772;55.586;37.730;2023-06-22T11:29:29;7.68;;;3.30;;
62711;SDS011;48772;55.586;37.730;2023-06-22T11:31:56;6.72;;;4.25;;
62711;SDS011;48772;55.586;37.730;2023-06-22T11:34:22;5.90;;;4.03;;
62711;SDS011;48772;55.586;37.730;2023-06-22T11:36:48;6.32;;;4.38;;
62711;SDS011;48772;55.586;37.730;2023-06-22T11:39:14;5.45;;;4.35;;
62711;SDS011;48772;55.586;37.730;2023-06-22T11:41:40;8.35;;;4.60;;
62711;SDS011;48772;55.586;37.730;2023-06-22T11:44:09;7.97;;;4.10;;
62711;SDS011;48772;55.586;37.730;2023-06-22T11:46:35;4.55;;;3.90;;
62711;SDS011;48772;55.586;37.730;2023-06-22T11:49:01;7.40;;;4.20;;
62711;SDS011;48772;55.586;37.730;2023-06-22T11:51:28;7.05;;;4.22;;
62711;SDS011;48772;55.586;37.730;2023-06-22T11:53:57;9.48;;;4.10;;
62711;SDS011;48772;55.586;37.730;2023-06-22T11:56:24;9.13;;;4.55;;
62711;SDS011;48772;55.586;37.730;2023-06-22T11:58:50;6.93;;;4.43;;
62711;SDS011;48772;55.586;37.730;2023-06-22T12:01:16;5.80;;;4.13;;
62711;SDS011;48772;55.586;37.730;2023-06-22T12:03:42;8.13;;;5.68;;
62711;SDS011;48772;55.586;37.730;2023-06-22T12:06:09;11.15;;;5.18;;
62711;SDS011;48772;55.586;37.730;2023-06-22T12:08:35;8.02;;;5.00;;
62711;SDS011;48772;55.586;37.730;2023-06-22T12:11:02;7.93;;;5.07;;
62711;SDS011;48772;55.586;37.730;2023-06-22T12:13:28;7.43;;;4.30;;
62711;SDS011;48772;55.586;37.730;2023-06-22T12:15:54;7.93;;;4.35;;
62711;SDS011;48772;55.586;37.730;2023-06-22T12:18:23;4.85;;;4.30;;
62711;SDS011;48772;55.586;37.730;2023-06-22T12:20:50;12.38;;;4.18;;
62711;SDS011;48772;55.586;37.730;2023-06-22T12:23:16;11.07;;;4.28;;
62711;SDS011;48772;55.586;37.730;2023-06-22T12:25:44;5.72;;;4.50;;
62711;SDS011;48772;55.586;37.730;2023-06-22T12:28:11;11.73;;;4.68;;
62711;SDS011;48772;55.586;37.730;2023-06-22T12:30:44;9.95;;;4.80;;
62711;SDS011;48772;55.586;37.730;2023-06-22T12:33:10;5.88;;;4.68;;
62711;SDS011;48772;55.586;37.730;2023-06-22T12:35:37;6.13;;;3.83;;
62711;SDS011;48772;55.586;37.730;2023-06-22T12:38:03;5.07;;;4.50;;
62711;SDS011;48772;55.586;37.730;2023-06-22T12:40:32;6.60;;;4.18;;
62711;SDS011;48772;55.586;37.730;2023-06-22T12:42:59;7.07;;;4.10;;
62711;SDS011;48772;55.586;37.730;2023-06-22T12:45:25;8.60;;;4.10;;
62711;SDS011;48772;55.586;37.730;2023-06-22T12:47:54;4.30;;;3.90;;
62711;SDS011;48772;55.586;37.730;2023-06-22T12:50:20;6.82;;;4.53;;
62711;SDS011;48772;55.586;37.730;2023-06-22T12:52:47;5.85;;;4.50;;
62711;SDS011;48772;55.586;37.730;2023-06-22T12:55:13;5.18;;;4.13;;
62711;SDS011;48772;55.586;37.730;2023-06-22T12:57:42;5.22;;;4.43;;
62711;SDS011;48772;55.586;37.730;2023-06-22T13:00:12;6.43;;;5.20;;
62711;SDS011;48772;55.586;37.730;2023-06-22T13:02:38;7.88;;;5.20;;
62711;SDS011;48772;55.586;37.730;2023-06-22T13:05:05;8.95;;;5.22;;
62711;SDS011;48772;55.586;37.730;2023-06-22T13:07:31;4.95;;;3.92;;
62711;SDS011;48772;55.586;37.730;2023-06-22T13:09:57;5.13;;;4.15;;
62711;SDS011;48772;55.586;37.730;2023-06-22T13:12:24;6.57;;;4.43;;
62711;SDS011;48772;55.586;37.730;2023-06-22T13:14:50;6.50;;;4.07;;
62711;SDS011;48772;55.586;37.730;2023-06-22T13:17:16;9.05;;;4.25;;
62711;SDS011;48772;55.586;37.730;2023-06-22T13:19:42;7.53;;;5.32;;
62711;SDS011;48772;55.586;37.730;2023-06-22T13:24:55;12.15;;;5.30;;
62711;SDS011;48772;55.586;37.730;2023-06-22T13:27:22;7.20;;;4.00;;
62711;SDS011;48772;55.586;37.730;2023-06-22T13:29:48;7.85;;;4.72;;
62711;SDS011;48772;55.586;37.730;2023-06-22T13:32:14;14.05;;;4.93;;
62711;SDS011;48772;55.586;37.730;2023-06-22T13:34:40;7.68;;;4.43;;
62711;SDS011;48772;55.586;37.730;2023-06-22T13:37:06;7.57;;;3.97;;
62711;SDS011;48772;55.586;37.730;2023-06-22T13:39:32;5.07;;;4.45;;
62711;SDS011;48772;55.586;37.730;2023-06-22T13:41:59;6.38;;;4.10;;
62711;SDS011;48772;55.586;37.730;2023-06-22T13:44:27;5.55;;;3.88;;
62711;SDS011;48772;55.586;37.730;2023-06-22T13:46:55;11.45;;;4.78;;
62711;SDS011;48772;55.586;37.730;2023-06-22T13:49:21;5.93;;;4.20;;
62711;SDS011;48772;55.586;37.730;2023-06-22T13:51:47;10.57;;;4.32;;
62711;SDS011;48772;55.586;37.730;2023-06-22T13:54:14;6.93;;;4.40;;
62711;SDS011;48772;55.586;37.730;2023-06-22T13:56:40;8.13;;;4.05;;
62711;SDS011;48772;55.586;37.730;2023-06-22T13:59:07;6.75;;;4.40;;
62711;SDS011;48772;55.586;37.730;2023-06-22T14:01:35;7.32;;;4.50;;
62711;SDS011;48772;55.586;37.730;2023-06-22T14:04:02;8.05;;;4.20;;
62711;SDS011;48772;55.586;37.730;2023-06-22T14:06:29;6.60;;;4.15;;
62711;SDS011;48772;55.586;37.730;2023-06-22T14:08:55;9.82;;;4.25;;
62711;SDS011;48772;55.586;37.730;2023-06-22T14:11:21;7.97;;;4.28;;
62711;SDS011;48772;55.586;37.730;2023-06-22T14:13:49;6.47;;;4.53;;
62711;SDS011;48772;55.586;37.730;2023-06-22T14:16:16;4.93;;;4.25;;
62711;SDS011;48772;55.586;37.730;2023-06-22T14:18:44;6.50;;;4.40;;
62711;SDS011;48772;55.586;37.730;2023-06-22T14:21:10;4.38;;;3.97;;
62711;SDS011;48772;55.586;37.730;2023-06-22T14:23:37;5.78;;;4.50;;
62711;SDS011;48772;55.586;37.730;2023-06-22T14:26:03;10.85;;;4.18;;
62711;SDS011;48772;55.586;37.730;2023-06-22T14:28:30;5.68;;;4.28;;
62711;SDS011;48772;55.586;37.730;2023-06-22T14:30:57;5.38;;;3.90;;
62711;SDS011;48772;55.586;37.730;2023-06-22T14:33:23;8.98;;;4.05;;
62711;SDS011;48772;55.586;37.730;2023-06-22T14:35:50;7.63;;;3.95;;
62711;SDS011;48772;55.586;37.730;2023-06-22T14:38:16;5.72;;;4.63;;
62711;SDS011;48772;55.586;37.730;2023-06-22T14:40:42;6.82;;;3.95;;